Main page
METAR-TAF:

METAR-TAF

Airports :

East Midlands Airport

East Midlands, England

latitude: 52-50N, longitude: 001-20W, elevation: 94 m

Current weather observation

The report was made 19 minutes ago, at 05:50 UTC
Wind 11 kt from the West
Temperature 3°C
Humidity 93%
Pressure 1019 hPa
Visibility 10 km or more
Scattered clouds at a height of 2400 ft

METAR: EGNX 170550Z 28011KT 9999 SCT024 03/02 Q1019

Time: 06:09 (06:09 UTC)

Forecast

The report was made 1 hour and 14 minutes ago, at 04:55 UTC
Forecast valid from 17 at 06 UTC to 18 at 06 UTC
Wind 10 kt from the West
Visibility 10 km or more
Scattered clouds at a height of 2500 ft
Probability 30% :
Temporary
from 17 at 06 UTC to 17 at 08 UTC
Visibility: 8000 m
Broken clouds at a height of 1200 ft
light rain showers

TAF: EGNX 170455Z 1706/1806 28010KT 9999 SCT025 PROB30 TEMPO 1706/1708 8000 -SHRA BKN012

Weather observations and forecasts of more than 4000 airports (METAR and TAF reports).

The available stations are represented by yellow and red dots on the map.

Hover mouse over dot to see the name of the station.

Then click to see weather observations and forecasts.

To change the map : click on the green buttons with a black cross to zoom in, on the green button with a dash to zoom out, or on the green arrows for adjacent maps.


METAR-TAF: